createdAt,value
2023-03-06T00:01:01.261Z,67.05
2023-03-06T00:03:28.528Z,68.03
2023-03-06T00:05:57.473Z,68.22
2023-03-06T00:08:26.474Z,68.59
2023-03-06T00:10:54.194Z,69.16
2023-03-06T00:13:21.206Z,68.92
2023-03-06T00:15:48.847Z,68.86
2023-03-06T00:18:15.869Z,68.26
2023-03-06T00:20:44.287Z,68.48
2023-03-06T00:23:11.893Z,68.52
2023-03-06T00:25:42.537Z,68.79
2023-03-06T00:28:12.268Z,68.64
2023-03-06T00:30:39.418Z,68.75
2023-03-06T00:33:06.332Z,68.23
2023-03-06T00:35:33.423Z,67.88
2023-03-06T00:38:00.404Z,67.99
2023-03-06T00:40:27.528Z,68.00
2023-03-06T00:42:54.479Z,67.67
2023-03-06T00:45:21.365Z,67.98
2023-03-06T00:47:48.438Z,67.70
2023-03-06T00:50:15.356Z,67.21
2023-03-06T00:52:42.434Z,67.76
2023-03-06T00:55:10.568Z,66.91
2023-03-06T00:57:37.940Z,66.83
2023-03-06T01:00:07.814Z,66.50
2023-03-06T01:02:35.008Z,65.83
2023-03-06T01:05:02.266Z,64.92
2023-03-06T01:07:34.089Z,65.41
2023-03-06T01:10:00.971Z,65.78
2023-03-06T01:12:30.447Z,65.61
2023-03-06T01:14:57.509Z,65.32
2023-03-06T01:17:24.440Z,65.32
2023-03-06T01:19:51.368Z,65.86
2023-03-06T01:22:18.379Z,65.13
2023-03-06T01:24:45.273Z,65.26
2023-03-06T01:27:12.252Z,64.82
2023-03-06T01:29:39.144Z,64.57
2023-03-06T01:32:06.424Z,65.57
2023-03-06T01:34:33.392Z,64.94
2023-03-06T01:37:00.427Z,65.16
2023-03-06T01:39:28.760Z,64.76
2023-03-06T01:41:55.845Z,65.20
2023-03-06T01:44:22.682Z,65.19
2023-03-06T01:46:49.778Z,65.01
2023-03-06T01:49:35.341Z,64.86
2023-03-06T01:52:22.012Z,65.92
2023-03-06T01:54:57.782Z,65.87
2023-03-06T01:57:29.171Z,65.56
2023-03-06T02:00:02.744Z,66.52
2023-03-06T02:02:44.007Z,66.45
2023-03-06T02:05:12.090Z,66.73
2023-03-06T02:07:42.569Z,65.71
2023-03-06T02:10:14.335Z,66.63
2023-03-06T02:12:43.775Z,66.58
2023-03-06T02:15:11.726Z,66.64
2023-03-06T02:17:39.362Z,67.00
2023-03-06T02:20:17.472Z,67.15
2023-03-06T02:22:54.153Z,67.02
2023-03-06T02:25:41.653Z,68.02
2023-03-06T02:28:11.875Z,68.08
2023-03-06T02:30:42.743Z,68.71
2023-03-06T02:33:22.701Z,70.43
2023-03-06T02:36:04.668Z,70.63
2023-03-06T02:38:37.454Z,71.53
2023-03-06T02:41:08.897Z,71.85
2023-03-06T02:43:39.082Z,72.11
2023-03-06T02:46:06.951Z,71.86
2023-03-06T02:48:34.039Z,71.33
2023-03-06T02:51:00.990Z,71.21
2023-03-06T02:53:28.078Z,70.38
2023-03-06T02:55:55.223Z,70.04
2023-03-06T02:58:22.236Z,69.93
2023-03-06T03:00:50.070Z,68.57
2023-03-06T03:03:19.653Z,69.10
2023-03-06T03:05:46.741Z,68.63
2023-03-06T03:08:28.615Z,68.83
2023-03-06T03:11:00.276Z,69.63
2023-03-06T03:13:32.775Z,69.52
2023-03-06T03:16:03.622Z,69.14
2023-03-06T03:18:31.215Z,68.88
2023-03-06T03:20:58.819Z,69.36
2023-03-06T03:23:26.402Z,68.81
2023-03-06T03:26:16.417Z,68.55
2023-03-06T03:28:48.597Z,68.57
2023-03-06T03:31:18.428Z,68.08
2023-03-06T03:33:45.598Z,68.59
2023-03-06T03:36:13.271Z,69.17
2023-03-06T03:38:44.069Z,69.15
2023-03-06T03:41:11.846Z,69.73
2023-03-06T03:43:38.764Z,70.71
2023-03-06T03:46:06.216Z,71.34
2023-03-06T03:48:33.748Z,71.55
2023-03-06T03:51:12.893Z,72.30
2023-03-06T03:53:45.233Z,72.66
2023-03-06T03:56:14.799Z,72.91
2023-03-06T03:58:50.861Z,73.03
2023-03-06T04:01:18.237Z,73.24
2023-03-06T04:03:45.395Z,73.16
2023-03-06T04:06:14.939Z,73.32
2023-03-06T04:08:42.062Z,72.85
2023-03-06T04:11:09.529Z,72.63
2023-03-06T04:13:36.501Z,73.03
2023-03-06T04:16:05.166Z,73.30
2023-03-06T04:18:33.546Z,73.32
2023-03-06T04:21:04.425Z,73.40
2023-03-06T04:23:31.877Z,73.54
2023-03-06T04:25:59.069Z,73.99
2023-03-06T04:28:26.281Z,73.57
2023-03-06T04:30:53.306Z,73.54
2023-03-06T04:33:21.276Z,73.10
2023-03-06T04:35:48.614Z,73.53
2023-03-06T04:38:21.348Z,73.26
2023-03-06T04:40:49.899Z,73.31
2023-03-06T04:43:18.569Z,73.12
2023-03-06T04:45:45.504Z,72.94
2023-03-06T04:48:17.798Z,72.41
2023-03-06T04:50:44.904Z,72.17
2023-03-06T04:53:14.548Z,71.63
2023-03-06T04:55:41.646Z,71.92
2023-03-06T04:58:08.745Z,71.66
2023-03-06T05:00:35.696Z,71.55
2023-03-06T05:03:02.641Z,71.36
2023-03-06T05:05:29.951Z,71.41
2023-03-06T05:07:57.579Z,71.45
2023-03-06T05:10:24.601Z,71.19
2023-03-06T05:12:53.706Z,70.30
2023-03-06T05:15:20.678Z,69.95
2023-03-06T05:17:47.805Z,70.09
2023-03-06T05:20:15.603Z,70.21
2023-03-06T05:22:44.065Z,70.20
2023-03-06T05:25:11.187Z,69.84
2023-03-06T05:27:39.959Z,70.42
2023-03-06T05:30:08.020Z,70.37
2023-03-06T05:32:35.775Z,70.08
2023-03-06T05:35:04.011Z,70.12
2023-03-06T05:37:31.093Z,69.08
2023-03-06T05:39:58.474Z,68.59
2023-03-06T05:42:27.600Z,68.90
2023-03-06T05:44:55.357Z,69.31
2023-03-06T05:47:22.455Z,69.42
2023-03-06T05:49:49.380Z,69.57
2023-03-06T05:52:17.717Z,69.96
2023-03-06T05:54:44.966Z,69.66
2023-03-06T05:57:11.975Z,68.69
2023-03-06T05:59:39.238Z,68.08
2023-03-06T06:02:06.090Z,67.93
2023-03-06T06:04:33.028Z,67.21
2023-03-06T06:07:01.888Z,67.48
2023-03-06T06:09:29.595Z,67.27
2023-03-06T06:11:59.669Z,67.63
2023-03-06T06:14:26.617Z,67.51
2023-03-06T06:16:54.049Z,68.16
2023-03-06T06:19:22.151Z,67.40
2023-03-06T06:21:51.281Z,67.16
2023-03-06T06:24:20.575Z,67.11
2023-03-06T06:26:51.715Z,67.38
2023-03-06T06:29:18.612Z,66.89
2023-03-06T06:31:45.952Z,67.04
2023-03-06T06:34:13.841Z,66.44
2023-03-06T06:36:41.404Z,66.76
2023-03-06T06:39:16.053Z,65.37
2023-03-06T06:41:57.277Z,65.41
2023-03-06T06:44:29.461Z,65.69
2023-03-06T06:47:21.898Z,64.84
2023-03-06T06:49:43.609Z,64.69
2023-03-06T06:52:11.209Z,64.69
2023-03-06T06:54:38.249Z,65.38
2023-03-06T06:57:05.163Z,65.51
2023-03-06T06:59:32.257Z,64.57
2023-03-06T07:01:59.429Z,64.70
2023-03-06T07:04:27.073Z,65.41
2023-03-06T07:06:57.754Z,65.04
2023-03-06T07:09:25.646Z,63.81
2023-03-06T07:11:52.720Z,63.65
2023-03-06T07:14:19.845Z,64.34
2023-03-06T07:16:46.994Z,62.73
2023-03-06T07:19:14.169Z,62.48
2023-03-06T07:21:41.349Z,62.11
2023-03-06T07:24:08.623Z,62.16
2023-03-06T07:26:35.578Z,62.49
2023-03-06T07:29:04.165Z,61.98
2023-03-06T07:31:31.501Z,60.87
2023-03-06T07:33:58.448Z,61.13
2023-03-06T07:36:25.460Z,61.75
2023-03-06T07:38:52.321Z,61.36
2023-03-06T07:41:22.198Z,60.01
2023-03-06T07:43:49.876Z,59.81
2023-03-06T07:46:17.524Z,60.41
2023-03-06T07:48:44.727Z,59.82
2023-03-06T07:51:20.413Z,59.75
2023-03-06T07:53:48.637Z,59.07
2023-03-06T07:56:15.878Z,58.55
2023-03-06T07:58:44.886Z,58.92
2023-03-06T08:01:15.180Z,58.18
2023-03-06T08:03:42.770Z,58.34
2023-03-06T08:06:19.483Z,59.41
2023-03-06T08:08:47.454Z,59.25
2023-03-06T08:11:16.818Z,57.23
2023-03-06T08:13:44.019Z,57.64
2023-03-06T08:16:11.732Z,57.20
2023-03-06T08:18:40.004Z,57.26
2023-03-06T08:21:12.930Z,57.65
2023-03-06T08:23:40.728Z,57.82
2023-03-06T08:26:12.321Z,57.44
2023-03-06T08:28:40.019Z,56.46
2023-03-06T08:31:21.231Z,55.81
2023-03-06T08:33:48.170Z,55.68
2023-03-06T08:36:15.050Z,56.67
2023-03-06T08:38:42.197Z,55.54
2023-03-06T08:41:09.059Z,56.13
2023-03-06T08:43:36.303Z,55.94
2023-03-06T08:46:03.599Z,55.56
2023-03-06T08:48:30.613Z,55.87
2023-03-06T08:50:57.894Z,55.57
2023-03-06T08:53:40.334Z,56.66
2023-03-06T08:56:18.331Z,55.81
2023-03-06T08:58:46.060Z,55.66
2023-03-06T09:01:19.167Z,55.86
2023-03-06T09:03:46.462Z,55.12
2023-03-06T09:06:13.503Z,54.83
2023-03-06T09:08:43.214Z,55.27
2023-03-06T09:11:11.956Z,54.51
2023-03-06T09:13:39.311Z,52.64
2023-03-06T09:16:07.031Z,53.37
2023-03-06T09:18:33.854Z,53.63
2023-03-06T09:21:01.304Z,53.80
2023-03-06T09:23:29.371Z,54.14
2023-03-06T09:25:58.129Z,53.79
2023-03-06T09:28:25.488Z,54.06
2023-03-06T09:30:54.279Z,53.02
2023-03-06T09:33:21.798Z,52.09
2023-03-06T09:35:56.756Z,51.78
2023-03-06T09:38:27.166Z,51.48
2023-03-06T09:41:22.903Z,51.99
2023-03-06T09:43:53.379Z,51.14
2023-03-06T09:46:31.211Z,51.64
2023-03-06T09:49:34.002Z,51.26
2023-03-06T09:52:19.925Z,51.33
2023-03-06T09:54:54.549Z,50.98
2023-03-06T09:57:37.440Z,51.35
2023-03-06T10:00:13.173Z,49.71
2023-03-06T10:02:46.128Z,51.01
2023-03-06T10:05:26.997Z,49.47
2023-03-06T10:08:02.354Z,50.68
2023-03-06T10:10:48.426Z,50.47
2023-03-06T10:13:19.955Z,49.56
2023-03-06T10:15:48.158Z,48.81
2023-03-06T10:18:15.207Z,48.49
2023-03-06T10:21:17.273Z,48.54
2023-03-06T10:23:46.736Z,46.13
2023-03-06T10:26:19.588Z,47.56
2023-03-06T10:29:18.969Z,46.46
2023-03-06T10:31:56.595Z,45.07
2023-03-06T10:34:29.077Z,45.46
2023-03-06T10:37:01.545Z,44.53
2023-03-06T10:39:29.939Z,44.06
2023-03-06T10:41:56.905Z,46.03
2023-03-06T10:44:25.025Z,45.51
2023-03-06T10:46:53.977Z,45.06
2023-03-06T10:49:36.617Z,45.26
2023-03-06T10:52:06.681Z,44.96
2023-03-06T10:54:37.667Z,44.27
2023-03-06T10:57:20.702Z,45.20
2023-03-06T10:59:53.613Z,46.19
2023-03-06T11:02:27.627Z,44.38
2023-03-06T11:04:56.441Z,44.16
2023-03-06T11:07:28.787Z,43.53
2023-03-06T11:10:00.447Z,44.06
2023-03-06T11:12:33.398Z,42.97
2023-03-06T11:15:15.092Z,42.60
2023-03-06T11:17:55.563Z,44.16
2023-03-06T11:20:51.508Z,44.26
2023-03-06T11:23:29.333Z,43.87
2023-03-06T11:26:15.214Z,44.96
2023-03-06T11:28:48.549Z,44.65
2023-03-06T11:31:20.878Z,43.79
2023-03-06T11:34:06.410Z,45.46
2023-03-06T11:36:36.333Z,44.17
2023-03-06T11:39:26.464Z,42.63
2023-03-06T11:42:20.513Z,42.92
2023-03-06T11:45:07.225Z,41.87
2023-03-06T11:47:39.248Z,42.33
2023-03-06T11:50:18.888Z,43.20
2023-03-06T11:52:54.300Z,43.68
2023-03-06T11:55:50.381Z,41.25
2023-03-06T11:58:36.058Z,42.75
2023-03-06T12:01:32.393Z,41.32
2023-03-06T12:04:11.635Z,42.11
2023-03-06T12:07:12.459Z,42.38
2023-03-06T12:09:49.676Z,41.14
2023-03-06T12:12:54.247Z,41.99
2023-03-06T12:15:58.581Z,40.11
2023-03-06T12:19:04.188Z,41.06
2023-03-06T12:21:45.728Z,42.76
2023-03-06T12:24:27.672Z,41.64
2023-03-06T12:27:12.978Z,41.01
2023-03-06T12:29:46.354Z,39.92
2023-03-06T12:32:27.787Z,41.25
2023-03-06T12:35:05.958Z,39.69
2023-03-06T12:37:54.965Z,39.52
2023-03-06T12:40:39.616Z,40.49
2023-03-06T12:43:25.169Z,40.42
2023-03-06T12:46:01.320Z,38.90
2023-03-06T12:48:34.959Z,39.87
2023-03-06T12:51:03.981Z,40.45
2023-03-06T12:53:33.044Z,42.81
2023-03-06T12:56:01.692Z,40.53
2023-03-06T12:58:28.701Z,40.06
2023-03-06T13:01:06.149Z,40.86
2023-03-06T13:03:52.174Z,41.63
2023-03-06T13:06:51.209Z,40.55
2023-03-06T13:09:20.265Z,40.90
2023-03-06T13:12:16.335Z,39.99
2023-03-06T13:14:53.840Z,39.97
2023-03-06T13:17:21.424Z,38.84
2023-03-06T13:19:49.218Z,39.73
2023-03-06T13:22:30.001Z,40.88
2023-03-06T13:25:18.953Z,39.67
2023-03-06T13:28:00.326Z,37.95
2023-03-06T13:30:39.483Z,38.87
2023-03-06T13:33:27.521Z,37.88
2023-03-06T13:36:14.134Z,38.44
2023-03-06T13:38:40.873Z,39.13
2023-03-06T13:41:23.084Z,38.91
2023-03-06T13:43:52.692Z,39.34
2023-03-06T13:46:37.811Z,38.16
2023-03-06T13:49:07.793Z,39.86
2023-03-06T13:51:52.079Z,39.93
2023-03-06T13:54:41.029Z,39.24
2023-03-06T13:57:39.889Z,40.38
2023-03-06T14:00:34.267Z,40.38
2023-03-06T14:03:01.147Z,39.83
2023-03-06T14:05:46.059Z,40.59
2023-03-06T14:08:13.169Z,41.03
2023-03-06T14:10:40.711Z,38.87
2023-03-06T14:13:20.109Z,39.97
2023-03-06T14:15:52.826Z,41.39
2023-03-06T14:18:28.001Z,39.92
2023-03-06T14:21:01.073Z,37.56
2023-03-06T14:23:35.337Z,37.23
2023-03-06T14:26:08.952Z,39.40
2023-03-06T14:28:37.449Z,38.16
2023-03-06T14:31:06.241Z,37.39
2023-03-06T14:33:39.111Z,37.90
2023-03-06T14:36:10.386Z,39.07
2023-03-06T14:38:44.198Z,38.74
2023-03-06T14:41:13.048Z,39.53
2023-03-06T14:43:41.072Z,39.66
2023-03-06T14:46:20.086Z,39.08
2023-03-06T14:48:47.960Z,40.82
2023-03-06T14:51:21.182Z,41.18
2023-03-06T14:53:50.344Z,40.99
2023-03-06T14:56:23.437Z,40.58
2023-03-06T14:58:50.629Z,41.29
2023-03-06T15:01:26.084Z,42.06
2023-03-06T15:03:57.506Z,43.08
2023-03-06T15:06:29.805Z,42.56
2023-03-06T15:09:16.645Z,42.21
2023-03-06T15:12:03.990Z,40.89
2023-03-06T15:14:42.425Z,43.26
2023-03-06T15:17:18.469Z,41.97
2023-03-06T15:19:48.585Z,42.86
2023-03-06T15:22:27.753Z,42.02
2023-03-06T15:25:14.347Z,43.11
2023-03-06T15:27:47.213Z,43.84
2023-03-06T15:30:26.471Z,43.58
2023-03-06T15:33:22.242Z,44.74
2023-03-06T15:36:01.902Z,44.42
2023-03-06T15:38:32.406Z,44.79
2023-03-06T15:41:01.824Z,44.53
2023-03-06T15:43:34.745Z,45.13
2023-03-06T15:46:02.155Z,43.80
2023-03-06T15:48:29.170Z,44.37
2023-03-06T15:50:56.436Z,44.71
2023-03-06T15:53:23.757Z,47.05
2023-03-06T15:55:52.220Z,47.87
2023-03-06T15:58:23.507Z,44.99
2023-03-06T16:00:51.261Z,44.29
2023-03-06T16:03:18.837Z,44.98
2023-03-06T16:05:45.843Z,45.92
2023-03-06T16:08:14.931Z,45.68
2023-03-06T16:10:44.704Z,46.12
2023-03-06T16:13:16.430Z,45.93
2023-03-06T16:15:49.384Z,45.37
2023-03-06T16:18:16.831Z,45.58
2023-03-06T16:20:43.987Z,48.04
2023-03-06T16:23:11.052Z,47.07
2023-03-06T16:25:45.860Z,47.14
2023-03-06T16:28:16.463Z,46.76
2023-03-06T16:30:44.675Z,47.03
2023-03-06T16:33:12.964Z,48.47
2023-03-06T16:35:41.275Z,48.46
2023-03-06T16:38:10.567Z,48.21
2023-03-06T16:40:41.191Z,49.46
2023-03-06T16:43:09.706Z,48.23
2023-03-06T16:45:39.293Z,49.68
2023-03-06T16:48:07.461Z,49.64
2023-03-06T16:50:38.902Z,48.59
2023-03-06T16:53:06.442Z,48.92
2023-03-06T16:55:34.908Z,49.72
2023-03-06T16:58:03.223Z,49.48
2023-03-06T17:00:32.110Z,50.12
2023-03-06T17:03:00.800Z,49.32
2023-03-06T17:05:28.924Z,51.59
2023-03-06T17:07:56.571Z,50.71
2023-03-06T17:10:26.324Z,52.20
2023-03-06T17:12:55.225Z,50.00
2023-03-06T17:15:22.341Z,50.21
2023-03-06T17:17:51.646Z,51.20
2023-03-06T17:20:19.672Z,49.13
2023-03-06T17:22:46.693Z,50.02
2023-03-06T17:25:13.689Z,49.96
2023-03-06T17:27:41.041Z,50.73
2023-03-06T17:30:08.585Z,50.42
2023-03-06T17:32:37.586Z,51.30
2023-03-06T17:35:05.227Z,50.56
2023-03-06T17:37:32.419Z,50.26
2023-03-06T17:39:59.407Z,51.59
2023-03-06T17:42:26.406Z,51.37
2023-03-06T17:44:53.365Z,50.05
2023-03-06T17:47:20.410Z,50.54
2023-03-06T17:49:47.425Z,52.01
2023-03-06T17:52:14.409Z,51.14
2023-03-06T17:54:41.459Z,51.39
2023-03-06T17:57:08.532Z,51.79
2023-03-06T17:59:35.501Z,51.52
2023-03-06T18:02:02.760Z,52.41
2023-03-06T18:04:29.944Z,53.27
2023-03-06T18:06:58.301Z,53.56
2023-03-06T18:09:25.494Z,54.68
2023-03-06T18:11:52.438Z,53.04
2023-03-06T18:14:19.445Z,53.34
2023-03-06T18:16:46.765Z,54.48
2023-03-06T18:19:14.357Z,54.18
2023-03-06T18:21:41.468Z,55.20
2023-03-06T18:24:09.405Z,55.09
2023-03-06T18:26:36.512Z,55.18
2023-03-06T18:29:04.754Z,54.68
2023-03-06T18:31:37.295Z,55.72
2023-03-06T18:34:07.409Z,56.40
2023-03-06T18:36:35.737Z,55.64
2023-03-06T18:39:05.310Z,56.14
2023-03-06T18:41:32.926Z,57.10
2023-03-06T18:44:01.489Z,56.08
2023-03-06T18:46:34.756Z,56.94
2023-03-06T18:49:02.256Z,56.90
2023-03-06T18:51:29.318Z,56.54
2023-03-06T18:53:58.196Z,57.85
2023-03-06T18:56:25.398Z,58.14
2023-03-06T18:58:53.548Z,57.64
2023-03-06T19:01:22.553Z,57.34
2023-03-06T19:03:49.885Z,55.68
2023-03-06T19:06:17.646Z,54.75
2023-03-06T19:08:45.244Z,56.20
2023-03-06T19:11:14.726Z,55.28
2023-03-06T19:13:41.943Z,55.62
2023-03-06T19:16:16.026Z,54.55
2023-03-06T19:18:43.117Z,54.98
2023-03-06T19:21:15.038Z,54.97
2023-03-06T19:23:42.706Z,54.92
2023-03-06T19:26:11.521Z,55.65
2023-03-06T19:28:40.824Z,56.32
2023-03-06T19:31:14.401Z,56.45
2023-03-06T19:33:42.704Z,55.08
2023-03-06T19:36:12.010Z,55.23
2023-03-06T19:38:39.001Z,54.16
2023-03-06T19:41:06.322Z,55.29
2023-03-06T19:43:33.225Z,54.51
2023-03-06T19:46:00.895Z,55.17
2023-03-06T19:48:27.844Z,56.37
2023-03-06T19:50:54.987Z,55.80
2023-03-06T19:53:23.064Z,56.48
2023-03-06T19:55:50.142Z,56.70
2023-03-06T19:58:17.436Z,55.18
2023-03-06T20:00:44.377Z,55.62
2023-03-06T20:03:11.480Z,55.16
2023-03-06T20:05:46.080Z,55.22
2023-03-06T20:08:13.469Z,55.68
2023-03-06T20:10:40.306Z,57.72
2023-03-06T20:13:07.467Z,57.80
2023-03-06T20:15:35.170Z,58.41
2023-03-06T20:18:02.287Z,59.56
2023-03-06T20:20:29.128Z,58.80
2023-03-06T20:22:56.231Z,60.25
2023-03-06T20:25:23.132Z,58.42
2023-03-06T20:27:50.497Z,58.19
2023-03-06T20:30:17.813Z,60.12
2023-03-06T20:32:44.747Z,60.79
2023-03-06T20:35:11.877Z,61.80
2023-03-06T20:37:40.773Z,63.29
2023-03-06T20:40:08.619Z,64.90
2023-03-06T20:42:35.874Z,64.46
2023-03-06T20:45:02.957Z,63.19
2023-03-06T20:47:31.092Z,64.03
2023-03-06T20:49:57.923Z,64.31
2023-03-06T20:52:24.978Z,63.77
2023-03-06T20:54:51.811Z,63.22
2023-03-06T20:57:18.692Z,63.63
2023-03-06T20:59:45.650Z,63.77
2023-03-06T21:02:15.137Z,64.49
2023-03-06T21:04:42.366Z,64.71
2023-03-06T21:07:09.333Z,65.47
2023-03-06T21:09:37.914Z,66.95
2023-03-06T21:12:05.401Z,66.45
2023-03-06T21:14:32.401Z,66.98
2023-03-06T21:17:01.271Z,66.51
2023-03-06T21:19:28.157Z,67.55
2023-03-06T21:21:55.125Z,67.87
2023-03-06T21:24:22.498Z,69.15
2023-03-06T21:26:51.188Z,69.83
2023-03-06T21:29:18.399Z,68.56
2023-03-06T21:31:45.469Z,69.33
2023-03-06T21:34:12.608Z,69.08
2023-03-06T21:36:39.635Z,70.13
2023-03-06T21:39:06.791Z,69.47
2023-03-06T21:41:34.057Z,70.27
2023-03-06T21:44:03.455Z,69.27
2023-03-06T21:46:31.208Z,69.51
2023-03-06T21:48:58.840Z,69.79
2023-03-06T21:51:26.439Z,69.20
2023-03-06T21:53:54.330Z,68.86
2023-03-06T21:56:25.000Z,69.16
2023-03-06T21:58:52.299Z,69.13
2023-03-06T22:01:25.952Z,69.54
2023-03-06T22:03:53.521Z,68.56
2023-03-06T22:06:25.507Z,68.00
2023-03-06T22:08:58.580Z,68.11
2023-03-06T22:11:27.509Z,67.84
2023-03-06T22:13:54.546Z,67.74
2023-03-06T22:16:21.811Z,67.58
2023-03-06T22:18:52.155Z,68.24
2023-03-06T22:21:22.300Z,66.21
2023-03-06T22:23:51.586Z,66.82
2023-03-06T22:26:19.063Z,68.08
2023-03-06T22:28:46.280Z,68.15
2023-03-06T22:31:15.026Z,67.87
2023-03-06T22:33:42.103Z,67.65
2023-03-06T22:36:12.456Z,66.87
2023-03-06T22:38:41.543Z,66.29
2023-03-06T22:41:09.896Z,68.12
2023-03-06T22:43:37.386Z,68.78
2023-03-06T22:46:16.136Z,69.44
2023-03-06T22:48:43.995Z,69.00
2023-03-06T22:51:13.839Z,69.22
2023-03-06T22:53:41.295Z,69.44
2023-03-06T22:56:11.213Z,68.98
2023-03-06T22:58:38.602Z,69.31
2023-03-06T23:01:06.357Z,68.42
2023-03-06T23:03:33.322Z,67.97
2023-03-06T23:06:00.170Z,68.11
2023-03-06T23:08:27.023Z,68.35
2023-03-06T23:10:53.918Z,68.88
2023-03-06T23:13:39.162Z,68.91
2023-03-06T23:16:25.577Z,68.17
2023-03-06T23:19:11.673Z,67.50
2023-03-06T23:21:57.126Z,67.76
2023-03-06T23:24:42.871Z,67.98
2023-03-06T23:27:09.916Z,67.76
2023-03-06T23:29:36.964Z,67.84
2023-03-06T23:32:05.460Z,67.91
2023-03-06T23:34:32.510Z,68.65
2023-03-06T23:36:59.390Z,68.41
2023-03-06T23:39:26.685Z,69.23
2023-03-06T23:41:53.499Z,70.64
2023-03-06T23:44:20.728Z,69.97
2023-03-06T23:46:47.614Z,70.95
2023-03-06T23:49:14.627Z,71.56
2023-03-06T23:51:41.442Z,70.22
2023-03-06T23:54:09.970Z,70.20
2023-03-06T23:56:36.942Z,71.10
2023-03-06T23:59:04.201Z,70.35
